Time;durP1;ratioP1;P1;durP2;ratioP2;P2;SDS_P1;SDS_P2;PMS_P1;PMS_P2;Temp;Humidity;BMP_temperature;BMP_pressure;BME280_temperature;BME280_humidity;BME280_pressure;Samples;Min_cycle;Max_cycle;Signal;HPM_P1;HPM_P2
2022/04/24 00:00:22;;;;;;;7.13;3.33;;;;;;;-140.79;100.00;63287.88;5024229;28;20500;-52
2022/04/24 00:02:48;;;;;;;5.47;3.20;;;;;;;-140.79;100.00;63287.88;5024262;28;20881;-51
2022/04/24 00:05:13;;;;;;;5.32;3.35;;;;;;;-140.79;100.00;63287.88;5006802;28;20056;-51
2022/04/24 00:07:39;;;;;;;5.70;3.17;;;;;;;-140.79;100.00;63287.88;5024102;28;20041;-50
2022/04/24 00:10:05;;;;;;;7.93;3.17;;;;;;;-140.79;100.00;63287.88;5023976;28;20497;-52
2022/04/24 00:12:30;;;;;;;6.85;3.58;;;;;;;-140.79;100.00;63287.88;5024171;28;20386;-50
2022/04/24 00:14:55;;;;;;;6.50;3.42;;;;;;;-140.79;100.00;63287.88;5024541;28;20040;-52
2022/04/24 00:17:21;;;;;;;5.22;3.20;;;;;;;-140.79;100.00;63287.88;5023995;28;20488;-52
2022/04/24 00:19:48;;;;;;;8.02;3.55;;;;;;;-140.79;100.00;63287.88;5027706;28;20036;-52
2022/04/24 00:22:13;;;;;;;5.32;2.97;;;;;;;-140.79;100.00;63287.88;5043132;28;20052;-51
2022/04/24 00:24:39;;;;;;;7.10;3.17;;;;;;;-140.79;100.00;63287.88;5046908;28;20076;-52
2022/04/24 00:27:04;;;;;;;9.10;3.72;;;;;;;-140.79;100.00;63287.88;5027292;28;20022;-52
2022/04/24 00:29:30;;;;;;;7.25;3.70;;;;;;;-140.79;100.00;63287.88;5028486;28;20036;-51
2022/04/24 00:31:55;;;;;;;7.80;3.13;;;;;;;-140.79;100.00;63287.88;5028295;28;20060;-50
2022/04/24 00:34:20;;;;;;;6.13;3.30;;;;;;;-140.79;100.00;63287.88;5028190;28;20029;-51
2022/04/24 00:36:46;;;;;;;7.65;3.47;;;;;;;-140.79;100.00;63287.88;5028256;28;20060;-51
2022/04/24 00:39:12;;;;;;;7.47;3.00;;;;;;;-140.79;100.00;63287.88;5028328;28;20064;-50
2022/04/24 00:41:47;;;;;;;7.22;3.35;;;;;;;-140.79;100.00;63287.88;5028109;28;20463;-52
2022/04/24 00:44:14;;;;;;;6.88;3.42;;;;;;;-140.79;100.00;63287.88;5027684;28;20084;-54
2022/04/24 00:46:58;;;;;;;6.35;3.03;;;;;;;-140.79;100.00;63287.88;5044248;28;20033;-51
2022/04/24 00:49:24;;;;;;;5.88;3.33;;;;;;;-140.79;100.00;63287.88;5028125;28;20046;-51
2022/04/24 00:51:50;;;;;;;4.28;2.83;;;;;;;-140.79;100.00;63287.88;5028149;28;20030;-51
2022/04/24 00:54:15;;;;;;;7.47;3.47;;;;;;;-140.79;100.00;63287.88;5010302;28;20029;-52
2022/04/24 00:56:41;;;;;;;5.57;3.00;;;;;;;-140.79;100.00;63287.88;5026729;28;20041;-51
2022/04/24 00:59:08;;;;;;;6.43;3.20;;;;;;;-140.79;100.00;63287.88;5027519;28;20463;-52
2022/04/24 01:01:34;;;;;;;8.68;3.10;;;;;;;-140.79;100.00;63287.88;5027994;28;20037;-51
2022/04/24 01:04:01;;;;;;;6.97;3.15;;;;;;;-140.79;100.00;63287.88;5027741;28;20040;-51
2022/04/24 01:06:39;;;;;;;5.97;2.83;;;;;;;-140.79;100.00;63287.88;5009931;28;20036;-54
2022/04/24 01:09:10;;;;;;;4.35;2.92;;;;;;;-140.79;100.00;63287.88;5012692;28;20105;-53
2022/04/24 01:11:36;;;;;;;5.57;2.65;;;;;;;-140.79;100.00;63287.88;5027373;28;20079;-51
2022/04/24 01:14:01;;;;;;;5.55;2.97;;;;;;;-140.79;100.00;63287.88;5027672;28;20033;-52
2022/04/24 01:16:27;;;;;;;5.85;2.90;;;;;;;-140.79;100.00;63287.88;5009816;28;20046;-53
2022/04/24 01:18:53;;;;;;;7.03;3.22;;;;;;;-140.79;100.00;63287.88;5025940;28;20057;-52
2022/04/24 01:21:18;;;;;;;6.68;3.28;;;;;;;-140.79;100.00;63287.88;4992889;28;20144;-51
2022/04/24 01:23:43;;;;;;;5.78;3.00;;;;;;;-140.79;100.00;63287.88;5027219;28;20477;-52
2022/04/24 01:26:09;;;;;;;6.03;3.17;;;;;;;-140.79;100.00;63287.88;5040857;28;20523;-50
2022/04/24 01:28:34;;;;;;;6.28;2.95;;;;;;;-140.79;100.00;63287.88;5030177;28;20472;-51
2022/04/24 01:31:00;;;;;;;5.57;3.08;;;;;;;-140.79;100.00;63287.88;5026770;28;20041;-55
2022/04/24 01:33:27;;;;;;;4.00;2.63;;;;;;;-140.79;100.00;63287.88;5027076;28;20489;-51
2022/04/24 01:35:52;;;;;;;5.90;2.72;;;;;;;-140.79;100.00;63287.88;5025758;28;20451;-53
2022/04/24 01:38:18;;;;;;;4.80;2.97;;;;;;;-140.79;100.00;63287.88;5027361;28;20037;-52
2022/04/24 01:40:43;;;;;;;4.82;2.80;;;;;;;-140.79;100.00;63287.88;5045299;28;20499;-51
2022/04/24 01:43:08;;;;;;;4.80;2.60;;;;;;;-140.79;100.00;63287.88;5047114;28;20036;-53
2022/04/24 01:45:34;;;;;;;5.63;3.22;;;;;;;-140.79;100.00;63287.88;5037015;28;20025;-52
2022/04/24 01:47:59;;;;;;;5.65;2.60;;;;;;;-140.79;100.00;63287.88;5026973;28;20037;-51
2022/04/24 01:50:25;;;;;;;4.88;2.85;;;;;;;-140.79;100.00;63287.88;5027085;28;20038;-52
2022/04/24 01:52:50;;;;;;;5.88;2.67;;;;;;;-140.79;100.00;63287.88;5009079;28;20099;-54
2022/04/24 01:55:16;;;;;;;8.93;3.25;;;;;;;-140.79;100.00;63287.88;5026929;28;20068;-51
2022/04/24 01:57:41;;;;;;;6.18;2.72;;;;;;;-140.79;100.00;63287.88;5026885;28;20037;-53
2022/04/24 02:00:07;;;;;;;5.13;3.00;;;;;;;-140.79;100.00;63287.88;5022006;28;20037;-51
2022/04/24 02:02:32;;;;;;;5.00;2.80;;;;;;;-140.79;100.00;63287.88;5046662;28;20029;-51
2022/04/24 02:04:58;;;;;;;5.97;2.78;;;;;;;-140.79;100.00;63287.88;5043015;28;20006;-53
2022/04/24 02:07:23;;;;;;;5.20;2.90;;;;;;;-140.79;100.00;63287.88;5026955;28;20025;-51
2022/04/24 02:09:49;;;;;;;4.00;2.50;;;;;;;-140.79;100.00;63287.88;5026608;28;20040;-50
2022/04/24 02:12:16;;;;;;;4.65;2.70;;;;;;;-140.79;100.00;63287.88;5026546;28;20460;-51
2022/04/24 02:14:42;;;;;;;7.07;3.33;;;;;;;-140.79;100.00;63287.88;5026527;28;20065;-54
2022/04/24 02:17:07;;;;;;;5.35;2.85;;;;;;;-140.79;100.00;63287.88;5026307;28;20040;-54
2022/04/24 02:19:32;;;;;;;4.82;3.15;;;;;;;-140.79;100.00;63287.88;5026275;28;20037;-54
2022/04/24 02:21:58;;;;;;;6.55;3.40;;;;;;;-140.79;100.00;63287.88;5026178;28;20091;-52
2022/04/24 02:24:23;;;;;;;4.95;2.67;;;;;;;-140.79;100.00;63287.88;5024636;28;20045;-51
2022/04/24 02:26:49;;;;;;;5.60;2.70;;;;;;;-140.79;100.00;63287.88;5042129;28;20037;-51
2022/04/24 02:29:14;;;;;;;5.57;3.10;;;;;;;-140.79;100.00;63287.88;5025955;28;20132;-51
2022/04/24 02:31:40;;;;;;;7.50;3.25;;;;;;;-140.79;100.00;63287.88;5034929;28;20045;-52
2022/04/24 02:34:05;;;;;;;6.15;3.22;;;;;;;-140.79;100.00;63287.88;5028047;28;20045;-55
2022/04/24 02:36:31;;;;;;;6.15;3.38;;;;;;;-140.79;100.00;63287.88;5046234;28;20468;-54
2022/04/24 02:38:56;;;;;;;4.78;2.92;;;;;;;-140.79;100.00;63287.88;5025905;28;20475;-54
2022/04/24 02:41:22;;;;;;;5.60;2.63;;;;;;;-140.79;100.00;63287.88;5025109;28;20416;-54
2022/04/24 02:43:47;;;;;;;6.57;3.10;;;;;;;-140.79;100.00;63287.88;5025864;28;20048;-50
2022/04/24 02:46:13;;;;;;;4.20;2.80;;;;;;;-140.79;100.00;63287.88;5024141;28;20480;-51
2022/04/24 02:48:38;;;;;;;6.13;3.15;;;;;;;-140.79;100.00;63287.88;5025491;28;20041;-50
2022/04/24 02:51:04;;;;;;;4.00;2.75;;;;;;;-140.79;100.00;63287.88;5025709;28;20030;-52
2022/04/24 02:53:29;;;;;;;6.60;2.83;;;;;;;-140.79;100.00;63287.88;5025067;28;20025;-51
2022/04/24 02:55:54;;;;;;;4.75;3.05;;;;;;;-140.79;100.00;63287.88;5025543;28;20029;-52
2022/04/24 02:58:21;;;;;;;4.80;3.10;;;;;;;-140.79;100.00;63287.88;5023705;28;20133;-52
2022/04/24 03:00:50;;;;;;;5.97;2.85;;;;;;;-140.79;100.00;63287.88;5043574;28;20052;-52
2022/04/24 03:03:19;;;;;;;5.15;3.30;;;;;;;-140.79;100.00;63287.88;5045697;28;20037;-50
2022/04/24 03:05:45;;;;;;;6.07;2.90;;;;;;;-140.79;100.00;63287.88;5024177;28;20044;-53
2022/04/24 03:08:11;;;;;;;4.13;2.85;;;;;;;-140.79;100.00;63287.88;5024961;28;20033;-50
2022/04/24 03:10:37;;;;;;;6.05;2.92;;;;;;;-140.79;100.00;63287.88;5006939;28;20722;-53
2022/04/24 03:13:02;;;;;;;4.05;2.78;;;;;;;-140.79;100.00;63287.88;5025136;28;20037;-51
2022/04/24 03:15:28;;;;;;;5.15;2.72;;;;;;;-140.79;100.00;63287.88;5007654;28;20071;-54
2022/04/24 03:17:54;;;;;;;4.63;3.00;;;;;;;-140.79;100.00;63287.88;4996762;28;20026;-53
2022/04/24 03:20:21;;;;;;;5.68;3.30;;;;;;;-140.79;100.00;63287.88;5019302;28;20488;-51
2022/04/24 03:22:46;;;;;;;4.78;2.83;;;;;;;-140.79;100.00;63287.88;5007270;28;20037;-52
2022/04/24 03:25:11;;;;;;;5.28;2.85;;;;;;;-140.79;100.00;63287.88;5007411;28;20342;-53
2022/04/24 03:27:38;;;;;;;6.53;3.13;;;;;;;-140.79;100.00;63287.88;5024388;28;20045;-51
2022/04/24 03:30:04;;;;;;;5.38;3.10;;;;;;;-140.79;100.00;63287.88;5024798;28;20112;-54
2022/04/24 03:32:32;;;;;;;5.45;2.90;;;;;;;-140.79;100.00;63287.88;5007217;28;20049;-54
2022/04/24 03:34:58;;;;;;;5.55;2.90;;;;;;;-140.79;100.00;63287.88;5024978;28;20522;-51
2022/04/24 03:37:23;;;;;;;5.15;2.80;;;;;;;-140.79;100.00;63287.88;5024964;28;20125;-54
2022/04/24 03:39:49;;;;;;;5.70;2.65;;;;;;;-140.79;100.00;63287.88;5024489;28;20358;-51
2022/04/24 03:42:14;;;;;;;5.57;3.20;;;;;;;-140.79;100.00;63287.88;5024525;28;20034;-51
2022/04/24 03:44:40;;;;;;;8.05;3.42;;;;;;;-140.79;100.00;63287.88;5025139;28;20037;-52
2022/04/24 03:47:06;;;;;;;5.45;3.10;;;;;;;-140.79;100.00;63287.88;5040198;28;20101;-53
2022/04/24 03:49:32;;;;;;;7.07;2.90;;;;;;;-140.79;100.00;63287.88;5024181;28;20029;-54
2022/04/24 03:51:57;;;;;;;6.63;2.95;;;;;;;-140.79;100.00;63287.88;5024588;28;20033;-51
2022/04/24 03:54:23;;;;;;;6.20;3.08;;;;;;;-140.79;100.00;63287.88;5024348;28;20477;-53
2022/04/24 03:56:48;;;;;;;5.97;2.80;;;;;;;-140.79;100.00;63287.88;5024332;28;20804;-51
2022/04/24 03:59:13;;;;;;;4.57;2.80;;;;;;;-140.79;100.00;63287.88;5023776;28;20095;-52
2022/04/24 04:01:39;;;;;;;6.10;2.90;;;;;;;-140.79;100.00;63287.88;5032783;28;20041;-51
2022/04/24 04:04:04;;;;;;;7.47;3.40;;;;;;;-140.79;100.00;63287.88;5044762;28;20029;-51
2022/04/24 04:06:30;;;;;;;6.13;3.00;;;;;;;-140.79;100.00;63287.88;5028217;28;20033;-52
2022/04/24 04:08:55;;;;;;;4.40;2.88;;;;;;;-140.79;100.00;63287.88;5023553;28;20834;-51
2022/04/24 04:11:21;;;;;;;5.68;2.80;;;;;;;-140.79;100.00;63287.88;5024417;28;20029;-52
2022/04/24 04:13:46;;;;;;;5.20;3.03;;;;;;;-140.79;100.00;63287.88;5024241;28;20037;-50
2022/04/24 04:16:12;;;;;;;6.03;3.08;;;;;;;-140.79;100.00;63287.88;5024340;28;20091;-51
2022/04/24 04:18:38;;;;;;;4.85;2.83;;;;;;;-140.79;100.00;63287.88;5024021;28;20021;-50
2022/04/24 04:21:03;;;;;;;4.88;3.10;;;;;;;-140.79;100.00;63287.88;5024030;28;20565;-54
2022/04/24 04:23:29;;;;;;;4.80;2.67;;;;;;;-140.79;100.00;63287.88;5023190;28;20036;-51
2022/04/24 04:25:54;;;;;;;6.57;3.38;;;;;;;-140.79;100.00;63287.88;5034948;28;20033;-51
2022/04/24 04:28:20;;;;;;;4.82;2.50;;;;;;;-140.79;100.00;63287.88;5030185;28;20108;-50
2022/04/24 04:30:45;;;;;;;6.32;3.30;;;;;;;-140.79;100.00;63287.88;5023892;28;20059;-50
2022/04/24 04:33:11;;;;;;;4.50;2.58;;;;;;;-140.79;100.00;63287.88;5023237;28;20040;-50
2022/04/24 04:35:36;;;;;;;5.40;2.78;;;;;;;-140.79;100.00;63287.88;5024089;28;20094;-51
2022/04/24 04:38:02;;;;;;;4.57;2.78;;;;;;;-140.79;100.00;63287.88;5024087;28;20112;-50
2022/04/24 04:40:28;;;;;;;5.63;3.05;;;;;;;-140.79;100.00;63287.88;5039483;28;20479;-50
2022/04/24 04:42:53;;;;;;;4.82;2.92;;;;;;;-140.79;100.00;63287.88;5044228;28;20033;-53
2022/04/24 04:45:19;;;;;;;4.57;2.97;;;;;;;-140.79;100.00;63287.88;5039210;28;20038;-52
2022/04/24 04:47:47;;;;;;;7.05;3.20;;;;;;;-140.79;100.00;63287.88;5024062;28;20048;-50
2022/04/24 04:50:12;;;;;;;5.28;2.95;;;;;;;-140.79;100.00;63287.88;5027017;28;20033;-54
2022/04/24 04:52:37;;;;;;;5.38;3.40;;;;;;;-140.79;100.00;63287.88;5025687;28;20099;-52
2022/04/24 04:55:03;;;;;;;6.28;3.58;;;;;;;-140.79;100.00;63287.88;5025531;28;20048;-52
2022/04/24 04:57:29;;;;;;;5.00;3.05;;;;;;;-140.79;100.00;63287.88;5011344;28;20488;-51
2022/04/24 04:59:55;;;;;;;8.68;3.70;;;;;;;-140.79;100.00;63287.88;5025296;28;20026;-54
2022/04/24 05:02:20;;;;;;;6.90;3.40;;;;;;;-140.79;100.00;63287.88;5025126;28;20091;-52
2022/04/24 05:04:46;;;;;;;4.63;3.13;;;;;;;-140.79;100.00;63287.88;5012116;28;20455;-61
2022/04/24 05:07:11;;;;;;;7.63;3.30;;;;;;;-140.79;100.00;63287.88;5030849;28;20063;-54
2022/04/24 05:09:37;;;;;;;8.18;3.92;;;;;;;-140.79;100.00;63287.88;5014193;28;20029;-54
2022/04/24 05:12:03;;;;;;;6.45;3.38;;;;;;;-140.79;100.00;63287.88;5030097;28;20099;-52
2022/04/24 05:14:29;;;;;;;5.22;3.42;;;;;;;-140.79;100.00;63287.88;5027770;28;20473;-51
2022/04/24 05:16:54;;;;;;;7.43;3.70;;;;;;;-140.79;100.00;63287.88;5027267;28;20021;-51
2022/04/24 05:19:20;;;;;;;4.97;3.80;;;;;;;-140.79;100.00;63287.88;5009677;28;20037;-51
2022/04/24 05:21:45;;;;;;;4.57;3.55;;;;;;;-140.79;100.00;63287.88;5027071;28;20118;-51
2022/04/24 05:24:10;;;;;;;6.97;3.65;;;;;;;-140.79;100.00;63287.88;5027534;28;20606;-53
2022/04/24 05:26:36;;;;;;;7.35;4.00;;;;;;;-140.79;100.00;63287.88;5027314;28;20519;-53
2022/04/24 05:29:03;;;;;;;5.55;3.70;;;;;;;-140.79;100.00;63287.88;5027256;28;20501;-55
2022/04/24 05:31:30;;;;;;;6.25;4.00;;;;;;;-140.79;100.00;63287.88;5026591;28;20065;-51
2022/04/24 05:33:56;;;;;;;7.25;3.90;;;;;;;-140.79;100.00;63287.88;5027237;28;20026;-54
2022/04/24 05:36:21;;;;;;;5.90;3.70;;;;;;;-140.79;100.00;63287.88;5027678;28;20428;-52
2022/04/24 05:38:46;;;;;;;6.07;3.40;;;;;;;-140.79;100.00;63287.88;5029428;28;20532;-52
2022/04/24 05:41:12;;;;;;;7.28;3.78;;;;;;;-140.79;100.00;63287.88;5028215;28;20029;-53
2022/04/24 05:43:37;;;;;;;5.93;3.70;;;;;;;-140.79;100.00;63287.88;5010109;28;20087;-53
2022/04/24 05:46:03;;;;;;;4.88;3.13;;;;;;;-140.79;100.00;63287.88;5027404;28;20056;-51
2022/04/24 05:48:28;;;;;;;4.75;3.42;;;;;;;-140.79;100.00;63287.88;5027541;28;20037;-55
2022/04/24 05:50:54;;;;;;;5.57;3.70;;;;;;;-140.79;100.00;63287.88;5027104;28;20080;-53
2022/04/24 05:53:20;;;;;;;5.70;3.40;;;;;;;-140.79;100.00;63287.88;5027491;28;20087;-54
2022/04/24 05:55:45;;;;;;;6.30;3.63;;;;;;;-140.79;100.00;63287.88;5027776;28;20842;-55
2022/04/24 05:58:10;;;;;;;6.55;3.47;;;;;;;-140.79;100.00;63287.88;5027243;28;20099;-55
2022/04/24 06:00:39;;;;;;;4.90;3.22;;;;;;;-140.79;100.00;63287.88;5043854;28;20037;-54
2022/04/24 06:03:04;;;;;;;6.93;3.92;;;;;;;-140.79;100.00;63287.88;5035186;28;20094;-55
2022/04/24 06:05:30;;;;;;;6.47;3.42;;;;;;;-140.79;100.00;63287.88;5022758;28;20025;-55
2022/04/24 06:07:55;;;;;;;6.40;3.38;;;;;;;-140.79;100.00;63287.88;5027522;28;20036;-55
2022/04/24 06:10:21;;;;;;;6.72;3.58;;;;;;;-140.79;100.00;63287.88;5009850;28;20581;-55
2022/04/24 06:12:51;;;;;;;5.22;3.20;;;;;;;-140.79;100.00;63287.88;5027102;28;20346;-55
2022/04/24 06:15:20;;;;;;;6.47;3.50;;;;;;;-140.79;100.00;63287.88;5026547;28;20079;-54
2022/04/24 06:17:47;;;;;;;6.63;2.83;;;;;;;-140.79;100.00;63287.88;5009375;28;20046;-55
2022/04/24 06:20:13;;;;;;;4.22;2.80;;;;;;;-140.79;100.00;63287.88;5022171;28;20039;-55
2022/04/24 06:22:45;;;;;;;5.43;2.90;;;;;;;-140.79;100.00;63287.88;5028870;28;20033;-55
2022/04/24 06:25:17;;;;;;;6.45;3.10;;;;;;;-140.79;100.00;63287.88;5041833;28;20128;-54
2022/04/24 06:27:44;;;;;;;4.40;2.40;;;;;;;-140.79;100.00;63287.88;5026809;28;20033;-55
2022/04/24 06:30:10;;;;;;;5.30;2.58;;;;;;;-140.79;100.00;63287.88;5026527;28;20083;-53
2022/04/24 06:32:41;;;;;;;5.53;2.83;;;;;;;-140.79;100.00;63287.88;5026701;28;20109;-55
2022/04/24 06:35:09;;;;;;;5.75;2.70;;;;;;;-140.79;100.00;63287.88;5026294;28;20095;-55
2022/04/24 06:37:38;;;;;;;5.10;2.55;;;;;;;-140.79;100.00;63287.88;4969291;28;20041;-56
2022/04/24 06:40:08;;;;;;;4.82;2.70;;;;;;;-140.79;100.00;63287.88;5018174;28;20037;-54
2022/04/24 06:42:34;;;;;;;3.95;2.40;;;;;;;-140.79;100.00;63287.88;5026504;28;20033;-51
2022/04/24 06:44:59;;;;;;;4.25;2.60;;;;;;;-140.79;100.00;63287.88;5025420;28;20791;-54
2022/04/24 06:47:27;;;;;;;5.15;2.75;;;;;;;-140.79;100.00;63287.88;5025621;28;20029;-52
2022/04/24 06:49:53;;;;;;;4.25;2.28;;;;;;;-140.79;100.00;63287.88;5026064;28;20033;-51
2022/04/24 06:52:19;;;;;;;4.57;2.50;;;;;;;-140.79;100.00;63287.88;5025761;28;20747;-51
2022/04/24 06:54:45;;;;;;;5.85;2.80;;;;;;;-140.79;100.00;63287.88;5025118;28;20045;-52
2022/04/24 06:57:10;;;;;;;4.07;2.30;;;;;;;-140.79;100.00;63287.88;5007817;28;20389;-51
2022/04/24 06:59:36;;;;;;;4.43;2.72;;;;;;;-140.79;100.00;63287.88;5009079;28;20509;-51
2022/04/24 07:02:01;;;;;;;3.90;2.72;;;;;;;-140.79;100.00;63287.88;5017143;28;20040;-51
2022/04/24 07:04:27;;;;;;;5.55;2.90;;;;;;;-140.79;100.00;63287.88;5024902;28;20037;-52
2022/04/24 07:06:52;;;;;;;4.97;2.50;;;;;;;-140.79;100.00;63287.88;5007342;28;20096;-51
2022/04/24 07:09:18;;;;;;;4.60;2.65;;;;;;;-140.79;100.00;63287.88;5025568;28;20033;-51
2022/04/24 07:11:43;;;;;;;4.15;2.63;;;;;;;-140.79;100.00;63287.88;5025149;28;20026;-53
2022/04/24 07:14:09;;;;;;;4.18;2.83;;;;;;;-140.79;100.00;63287.88;5025453;28;20037;-51
2022/04/24 07:16:35;;;;;;;4.95;2.92;;;;;;;-140.79;100.00;63287.88;5025390;28;20635;-52
2022/04/24 07:19:01;;;;;;;5.82;2.72;;;;;;;-140.79;100.00;63287.88;5025398;28;20044;-54
2022/04/24 07:21:26;;;;;;;6.20;2.42;;;;;;;-140.79;100.00;63287.88;5025593;28;20513;-54
2022/04/24 07:23:52;;;;;;;3.95;2.63;;;;;;;-140.79;100.00;63287.88;5025083;28;20472;-52
2022/04/24 07:26:17;;;;;;;6.00;2.58;;;;;;;-140.79;100.00;63287.88;5024685;28;20028;-52
2022/04/24 07:28:42;;;;;;;3.72;2.38;;;;;;;-140.79;100.00;63287.88;5024985;28;20033;-51
2022/04/24 07:31:08;;;;;;;7.15;2.88;;;;;;;-140.79;100.00;63287.88;5024383;28;20053;-53
2022/04/24 07:33:34;;;;;;;4.28;2.42;;;;;;;-140.79;100.00;63287.88;5024017;28;20067;-51
2022/04/24 07:35:59;;;;;;;3.53;2.42;;;;;;;-140.79;100.00;63287.88;5023713;28;20120;-53
2022/04/24 07:38:25;;;;;;;4.85;2.30;;;;;;;-140.79;100.00;63287.88;5024488;28;20033;-56
2022/04/24 07:40:50;;;;;;;4.22;2.63;;;;;;;-140.79;100.00;63287.88;5006712;28;20037;-53
2022/04/24 07:43:16;;;;;;;4.05;2.70;;;;;;;-140.79;100.00;63287.88;5006768;28;20062;-53
2022/04/24 07:45:47;;;;;;;4.85;2.50;;;;;;;-140.79;100.00;63287.88;5022631;28;20481;-51
2022/04/24 07:48:13;;;;;;;4.05;2.53;;;;;;;-140.79;100.00;63287.88;5024356;28;20103;-51
2022/04/24 07:50:40;;;;;;;6.15;2.42;;;;;;;-140.79;100.00;63287.88;5024175;28;20037;-52
2022/04/24 07:53:05;;;;;;;3.83;3.00;;;;;;;-140.79;100.00;63287.88;5022730;28;20041;-54
2022/04/24 07:55:31;;;;;;;3.88;2.72;;;;;;;-140.79;100.00;63287.88;5006740;28;20025;-53
2022/04/24 07:58:00;;;;;;;4.10;2.33;;;;;;;-140.79;100.00;63287.88;5006263;28;20033;-53
2022/04/24 08:00:28;;;;;;;4.45;2.60;;;;;;;-140.79;100.00;63287.88;5006020;28;20041;-54
2022/04/24 08:02:57;;;;;;;3.63;2.20;;;;;;;-140.79;100.00;63287.88;5023968;28;20037;-56
2022/04/24 08:05:33;;;;;;;4.75;2.58;;;;;;;-140.79;100.00;63287.88;5030111;28;20044;-54
2022/04/24 08:08:00;;;;;;;3.45;2.10;;;;;;;-140.79;100.00;63287.88;5017119;28;20029;-55
2022/04/24 08:10:28;;;;;;;4.10;2.30;;;;;;;-140.79;100.00;63287.88;5023962;28;20044;-56
2022/04/24 08:12:54;;;;;;;3.22;2.10;;;;;;;-140.79;100.00;63287.88;5024018;28;20116;-53
2022/04/24 08:15:19;;;;;;;3.70;2.50;;;;;;;-140.79;100.00;63287.88;5024104;28;20535;-54
2022/04/24 08:17:45;;;;;;;3.60;1.92;;;;;;;-140.79;100.00;63287.88;5024249;28;20040;-55
2022/04/24 08:20:12;;;;;;;3.97;2.15;;;;;;;-140.79;100.00;63287.88;5023746;28;20150;-54
2022/04/24 08:22:41;;;;;;;4.70;2.78;;;;;;;-140.79;100.00;63287.88;5024021;28;20064;-53
2022/04/24 08:25:09;;;;;;;5.13;2.40;;;;;;;-140.79;100.00;63287.88;5009920;28;20037;-55
2022/04/24 08:27:35;;;;;;;4.10;1.85;;;;;;;-140.79;100.00;63287.88;5036579;28;20033;-55
2022/04/24 08:30:01;;;;;;;4.13;2.40;;;;;;;-140.79;100.00;63287.88;5028301;28;176423;-52
2022/04/24 08:32:27;;;;;;;3.72;2.10;;;;;;;-140.79;100.00;63287.88;5043858;28;20098;-52
2022/04/24 08:34:52;;;;;;;4.15;2.05;;;;;;;-140.79;100.00;63287.88;5044142;28;20713;-54
2022/04/24 08:37:18;;;;;;;5.60;2.35;;;;;;;-140.79;100.00;63287.88;5039850;28;20040;-54
2022/04/24 08:39:43;;;;;;;3.78;1.95;;;;;;;-140.79;100.00;63287.88;5026186;28;20040;-54
2022/04/24 08:42:13;;;;;;;3.40;2.00;;;;;;;-140.79;100.00;63287.88;5011106;28;20036;-55
2022/04/24 08:44:38;;;;;;;4.05;2.20;;;;;;;-140.79;100.00;63287.88;5028181;28;20030;-55
2022/04/24 08:47:04;;;;;;;4.55;2.40;;;;;;;-140.79;100.00;63287.88;5010541;28;20060;-55
2022/04/24 08:49:33;;;;;;;5.07;1.90;;;;;;;-140.79;100.00;63287.88;5010911;28;20029;-54
2022/04/24 08:51:59;;;;;;;3.40;2.00;;;;;;;-140.79;100.00;63287.88;5028422;28;20033;-52
2022/04/24 08:54:27;;;;;;;4.35;2.10;;;;;;;-140.79;100.00;63287.88;5027755;28;20037;-52
2022/04/24 08:56:52;;;;;;;4.00;1.98;;;;;;;-140.79;100.00;63287.88;4996042;28;20520;-52
2022/04/24 08:59:17;;;;;;;6.03;2.22;;;;;;;-140.79;100.00;63287.88;5016524;28;20062;-55
2022/04/24 09:01:44;;;;;;;3.30;2.00;;;;;;;-140.79;100.00;63287.88;5016549;28;20440;-56
2022/04/24 09:04:09;;;;;;;3.72;2.08;;;;;;;-140.79;100.00;63287.88;5010857;28;20041;-56
2022/04/24 09:06:35;;;;;;;5.05;2.22;;;;;;;-140.79;100.00;63287.88;5026615;28;20475;-53
2022/04/24 09:09:06;;;;;;;3.28;2.15;;;;;;;-140.79;100.00;63287.88;5027798;28;20115;-51
2022/04/24 09:11:32;;;;;;;4.57;2.30;;;;;;;-140.79;100.00;63287.88;5028016;28;20033;-52
2022/04/24 09:14:18;;;;;;;3.45;1.83;;;;;;;-140.79;100.00;63287.88;5010282;28;20056;-54
2022/04/24 09:16:47;;;;;;;4.30;1.80;;;;;;;-140.79;100.00;63287.88;5028136;28;20083;-54
2022/04/24 09:19:17;;;;;;;3.83;1.57;;;;;;;-140.79;100.00;63287.88;5027395;28;20336;-55
2022/04/24 09:21:43;;;;;;;5.78;2.05;;;;;;;-140.79;100.00;63287.88;5010199;28;20056;-52
2022/04/24 09:24:08;;;;;;;4.75;1.98;;;;;;;-140.79;100.00;63287.88;5027808;28;20021;-53
2022/04/24 09:26:34;;;;;;;2.47;1.90;;;;;;;-140.79;100.00;63287.88;5010110;28;20033;-54
2022/04/24 09:28:59;;;;;;;3.80;1.75;;;;;;;-140.79;100.00;63287.88;5029126;28;20467;-55
2022/04/24 09:31:29;;;;;;;3.63;2.00;;;;;;;-140.79;100.00;63287.88;5047055;28;20041;-53
2022/04/24 09:33:54;;;;;;;3.97;1.80;;;;;;;-140.79;100.00;63287.88;5047466;28;20040;-51
2022/04/24 09:36:24;;;;;;;2.80;1.60;;;;;;;-140.79;100.00;63287.88;5047418;28;20033;-51
2022/04/24 09:38:49;;;;;;;2.80;1.70;;;;;;;-140.79;100.00;63287.88;5011405;28;20041;-51
2022/04/24 09:41:24;;;;;;;3.13;1.88;;;;;;;-140.79;100.00;63287.88;5027461;28;20060;-52
2022/04/24 09:43:50;;;;;;;3.38;1.60;;;;;;;-140.79;100.00;63287.88;5009735;28;20033;-51
2022/04/24 09:46:29;;;;;;;3.30;1.88;;;;;;;-140.79;100.00;63287.88;5039567;28;20032;-52
2022/04/24 09:48:58;;;;;;;4.53;1.90;;;;;;;-140.79;100.00;63287.88;5011412;28;20124;-55
2022/04/24 09:51:23;;;;;;;2.60;1.67;;;;;;;-140.79;100.00;63287.88;5027004;28;20037;-54
2022/04/24 09:53:49;;;;;;;2.75;1.70;;;;;;;-140.79;100.00;63287.88;5027185;28;20421;-54
2022/04/24 09:56:15;;;;;;;3.13;1.70;;;;;;;-140.79;100.00;63287.88;5025402;28;20436;-53
2022/04/24 09:58:40;;;;;;;3.35;1.85;;;;;;;-140.79;100.00;63287.88;5027159;28;20140;-52
2022/04/24 10:01:08;;;;;;;3.75;1.88;;;;;;;-140.79;100.00;63287.88;5046417;28;20032;-52
2022/04/24 10:03:35;;;;;;;3.60;1.92;;;;;;;-140.79;100.00;63287.88;5029474;28;20052;-54
2022/04/24 10:06:02;;;;;;;4.28;1.92;;;;;;;-140.79;100.00;63287.88;5017920;28;20171;-52
2022/04/24 10:08:27;;;;;;;3.22;1.58;;;;;;;-140.79;100.00;63287.88;5026956;28;20037;-54
2022/04/24 10:10:53;;;;;;;2.92;1.60;;;;;;;-140.79;100.00;63287.88;5025225;28;20044;-53
2022/04/24 10:13:18;;;;;;;3.55;1.38;;;;;;;-140.79;100.00;63287.88;5026900;28;20599;-51
2022/04/24 10:15:55;;;;;;;4.03;1.65;;;;;;;-140.79;100.00;63287.88;5026152;28;20041;-52
2022/04/24 10:18:35;;;;;;;4.22;1.85;;;;;;;-140.79;100.00;63287.88;5009184;28;20048;-51
2022/04/24 10:21:03;;;;;;;3.13;1.40;;;;;;;-140.79;100.00;63287.88;5027228;28;20511;-54
2022/04/24 10:23:34;;;;;;;2.90;1.58;;;;;;;-140.79;100.00;63287.88;5046325;28;20045;-52
2022/04/24 10:25:59;;;;;;;4.05;1.58;;;;;;;-140.79;100.00;63287.88;5017751;28;20439;-51
2022/04/24 10:28:28;;;;;;;4.32;1.70;;;;;;;-140.79;100.00;63287.88;5026482;28;20040;-51
2022/04/24 10:31:00;;;;;;;3.17;1.67;;;;;;;-140.79;100.00;63287.88;5008087;28;20045;-52
2022/04/24 10:33:30;;;;;;;3.15;1.70;;;;;;;-140.79;100.00;63287.88;5008860;28;20485;-53
2022/04/24 10:35:59;;;;;;;;;;;;;;;-140.79;100.00;63287.88;5026221;28;20492;-52
2022/04/24 10:38:26;;;;;;;3.10;1.80;;;;;;;-140.79;100.00;63287.88;5026100;28;20028;-54
2022/04/24 10:40:56;;;;;;;2.85;1.50;;;;;;;-140.79;100.00;63287.88;5026096;28;20817;-52
2022/04/24 10:43:23;;;;;;;4.50;1.80;;;;;;;-140.79;100.00;63287.88;5025738;28;20156;-50
2022/04/24 10:45:49;;;;;;;3.35;1.63;;;;;;;-140.79;100.00;63287.88;5034150;28;20065;-51
2022/04/24 10:48:14;;;;;;;3.05;1.55;;;;;;;-140.79;100.00;63287.88;5033639;28;20401;-50
2022/04/24 10:50:50;;;;;;;3.80;1.67;;;;;;;-140.79;100.00;63287.88;5008185;28;20090;-51
2022/04/24 10:53:15;;;;;;;2.65;1.70;;;;;;;-140.79;100.00;63287.88;5008671;28;20570;-51
2022/04/24 10:55:42;;;;;;;2.90;1.35;;;;;;;-140.79;100.00;63287.88;5007640;28;20033;-51
2022/04/24 10:58:07;;;;;;;3.17;1.75;;;;;;;-140.79;100.00;63287.88;5006587;28;20033;-51
2022/04/24 11:00:34;;;;;;;3.63;1.95;;;;;;;-140.79;100.00;63287.88;5025601;28;20116;-52
2022/04/24 11:03:13;;;;;;;2.50;1.70;;;;;;;-140.79;100.00;63287.88;5024817;28;20053;-51
2022/04/24 11:05:46;;;;;;;2.58;1.45;;;;;;;-140.79;100.00;63287.88;5032720;28;20491;-51